createdAt,value
2022-09-10T00:01:22.975Z,11.50
2022-09-10T00:03:53.373Z,11.50
2022-09-10T00:06:22.064Z,11.40
2022-09-10T00:08:52.006Z,11.40
2022-09-10T00:11:22.121Z,11.30
2022-09-10T00:13:50.476Z,11.30
2022-09-10T00:16:20.248Z,11.30
2022-09-10T00:18:50.121Z,11.30
2022-09-10T00:21:20.860Z,11.40
2022-09-10T00:23:49.544Z,11.40
2022-09-10T00:26:21.913Z,11.40
2022-09-10T00:28:51.111Z,11.40
2022-09-10T00:31:21.760Z,11.40
2022-09-10T00:33:50.474Z,11.40
2022-09-10T00:36:21.638Z,11.50
2022-09-10T00:38:50.370Z,11.50
2022-09-10T00:41:20.323Z,11.50
2022-09-10T00:43:56.466Z,11.50
2022-09-10T00:46:32.577Z,11.50
2022-09-10T00:49:02.935Z,11.50
2022-09-10T00:51:34.418Z,11.60
2022-09-10T00:54:05.208Z,11.50
2022-09-10T00:56:34.639Z,11.60
2022-09-10T00:59:03.807Z,11.60
2022-09-10T01:01:34.659Z,11.60
2022-09-10T01:04:04.760Z,11.60
2022-09-10T01:06:33.352Z,11.60
2022-09-10T01:09:03.068Z,11.60
2022-09-10T01:11:42.783Z,11.60
2022-09-10T01:14:29.490Z,11.50
2022-09-10T01:17:07.201Z,11.50
2022-09-10T01:20:15.007Z,11.50
2022-09-10T01:23:05.949Z,11.40
2022-09-10T01:25:44.760Z,11.50
2022-09-10T01:28:21.366Z,11.40
2022-09-10T01:30:56.501Z,11.40
2022-09-10T01:33:31.277Z,11.50
2022-09-10T01:36:02.855Z,11.50
2022-09-10T01:38:34.666Z,11.60
2022-09-10T01:41:03.028Z,11.60
2022-09-10T01:43:33.756Z,11.60
2022-09-10T01:46:18.628Z,11.60
2022-09-10T01:49:14.624Z,11.70
2022-09-10T01:52:05.351Z,11.70
2022-09-10T01:54:46.780Z,11.60
2022-09-10T01:57:24.493Z,11.60
2022-09-10T02:00:04.241Z,11.60
2022-09-10T02:02:38.321Z,11.50
2022-09-10T02:05:08.646Z,11.50
2022-09-10T02:07:37.807Z,11.50
2022-09-10T02:10:09.322Z,11.40
2022-09-10T02:12:39.930Z,11.40
2022-09-10T02:15:11.544Z,11.40
2022-09-10T02:17:42.038Z,11.30
2022-09-10T02:20:13.615Z,11.30
2022-09-10T02:22:45.699Z,11.30
2022-09-10T02:25:13.806Z,11.20
2022-09-10T02:27:43.387Z,11.20
2022-09-10T02:30:13.011Z,11.20
2022-09-10T02:32:40.778Z,11.10
2022-09-10T02:35:09.636Z,11.10
2022-09-10T02:37:37.832Z,11.00
2022-09-10T02:40:06.817Z,11.00
2022-09-10T02:42:34.820Z,11.00
2022-09-10T02:45:03.156Z,11.00
2022-09-10T02:47:32.664Z,11.00
2022-09-10T02:50:01.981Z,11.00
2022-09-10T02:52:30.137Z,10.90
2022-09-10T02:54:58.088Z,10.90
2022-09-10T02:57:27.488Z,10.90
2022-09-10T02:59:56.753Z,10.90
2022-09-10T03:02:25.611Z,10.90
2022-09-10T03:04:54.940Z,10.80
2022-09-10T03:07:23.273Z,10.90
2022-09-10T03:09:51.232Z,10.80
2022-09-10T03:12:20.279Z,10.80
2022-09-10T03:14:48.912Z,10.70
2022-09-10T03:17:17.043Z,10.70
2022-09-10T03:19:45.008Z,10.70
2022-09-10T03:22:16.296Z,10.70
2022-09-10T03:24:44.288Z,10.60
2022-09-10T03:27:13.936Z,10.60
2022-09-10T03:29:41.952Z,10.60
2022-09-10T03:32:09.958Z,10.50
2022-09-10T03:34:37.900Z,10.50
2022-09-10T03:37:07.314Z,10.50
2022-09-10T03:39:36.640Z,10.40
2022-09-10T03:42:05.169Z,10.40
2022-09-10T03:44:33.524Z,10.40
2022-09-10T03:47:01.709Z,10.50
2022-09-10T03:49:29.890Z,10.50
2022-09-10T03:51:57.847Z,10.50
2022-09-10T03:54:26.774Z,10.60
2022-09-10T03:56:56.101Z,10.60
2022-09-10T03:59:26.036Z,10.60
2022-09-10T04:01:54.095Z,10.60
2022-09-10T04:04:22.576Z,10.60
2022-09-10T04:06:50.781Z,10.60
2022-09-10T04:09:19.339Z,10.60
2022-09-10T04:11:47.428Z,10.60
2022-09-10T04:14:19.476Z,10.60
2022-09-10T04:16:47.665Z,10.60
2022-09-10T04:19:15.672Z,10.60
2022-09-10T04:21:43.629Z,10.60
2022-09-10T04:24:13.384Z,10.60
2022-09-10T04:26:41.321Z,10.60
2022-09-10T04:29:09.277Z,10.50
2022-09-10T04:31:40.124Z,10.50
2022-09-10T04:34:08.160Z,10.50
2022-09-10T04:36:36.143Z,10.40
2022-09-10T04:39:04.165Z,10.40
2022-09-10T04:41:32.270Z,10.30
2022-09-10T04:44:00.284Z,10.30
2022-09-10T04:46:30.234Z,10.30
2022-09-10T04:49:00.230Z,10.30
2022-09-10T04:51:28.184Z,10.30
2022-09-10T04:53:56.180Z,10.30
2022-09-10T04:56:24.251Z,10.30
2022-09-10T04:58:54.165Z,10.30
2022-09-10T05:01:22.180Z,10.30
2022-09-10T05:03:50.177Z,10.30
2022-09-10T05:06:20.347Z,10.30
2022-09-10T05:08:48.366Z,10.30
2022-09-10T05:11:19.711Z,10.20
2022-09-10T05:13:47.693Z,10.20
2022-09-10T05:16:15.812Z,10.30
2022-09-10T05:18:43.910Z,10.30
2022-09-10T05:21:12.191Z,10.30
2022-09-10T05:23:41.745Z,10.40
2022-09-10T05:26:10.119Z,10.50
2022-09-10T05:28:38.358Z,10.50
2022-09-10T05:31:09.638Z,10.60
2022-09-10T05:33:40.618Z,10.60
2022-09-10T05:36:10.743Z,10.60
2022-09-10T05:38:40.086Z,10.50
2022-09-10T05:41:11.446Z,10.60
2022-09-10T05:43:40.266Z,10.70
2022-09-10T05:46:08.552Z,10.80
2022-09-10T05:48:40.990Z,10.90
2022-09-10T05:51:09.797Z,11.00
2022-09-10T05:53:38.218Z,11.10
2022-09-10T05:56:07.568Z,11.20
2022-09-10T05:58:36.950Z,11.30
2022-09-10T06:01:05.031Z,11.50
2022-09-10T06:03:33.309Z,11.60
2022-09-10T06:06:01.248Z,11.60
2022-09-10T06:08:30.459Z,11.60
2022-09-10T06:11:02.548Z,11.70
2022-09-10T06:13:30.496Z,11.70
2022-09-10T06:16:00.667Z,11.80
2022-09-10T06:18:28.984Z,11.80
2022-09-10T06:21:05.721Z,11.90
2022-09-10T06:23:33.983Z,12.00
2022-09-10T06:26:04.927Z,12.10
2022-09-10T06:28:35.867Z,12.20
2022-09-10T06:31:05.746Z,12.40
2022-09-10T06:33:34.352Z,12.70
2022-09-10T06:36:03.943Z,12.90
2022-09-10T06:38:33.097Z,13.10
2022-09-10T06:41:02.723Z,13.30
2022-09-10T06:43:33.048Z,13.60
2022-09-10T06:46:01.361Z,13.70
2022-09-10T06:48:40.490Z,13.80
2022-09-10T06:51:12.625Z,14.10
2022-09-10T06:53:41.780Z,14.20
2022-09-10T06:56:13.119Z,14.50
2022-09-10T06:58:41.375Z,14.80
2022-09-10T07:01:14.682Z,15.00
2022-09-10T07:03:44.907Z,15.20
2022-09-10T07:06:15.276Z,15.50
2022-09-10T07:08:43.630Z,15.70
2022-09-10T07:11:13.585Z,15.90
2022-09-10T07:13:44.070Z,15.90
2022-09-10T07:16:12.162Z,16.00
2022-09-10T07:18:40.229Z,16.00
2022-09-10T07:21:11.033Z,16.10
2022-09-10T07:23:40.017Z,16.10
2022-09-10T07:26:09.758Z,16.10
2022-09-10T07:28:37.680Z,16.30
2022-09-10T07:31:14.587Z,16.60
2022-09-10T07:33:44.146Z,16.80
2022-09-10T07:36:13.860Z,16.80
2022-09-10T07:38:42.955Z,16.70
2022-09-10T07:41:14.176Z,16.70
2022-09-10T07:43:43.583Z,16.60
2022-09-10T07:46:13.839Z,16.70
2022-09-10T07:48:41.845Z,16.80
2022-09-10T07:51:11.078Z,16.70
2022-09-10T07:53:47.532Z,16.80
2022-09-10T07:56:18.381Z,16.80
2022-09-10T07:58:46.501Z,16.70
2022-09-10T08:01:14.693Z,16.70
2022-09-10T08:03:42.921Z,16.80
2022-09-10T08:06:11.241Z,16.90
2022-09-10T08:08:41.492Z,17.00
2022-09-10T08:11:12.911Z,17.20
2022-09-10T08:13:41.967Z,17.40
2022-09-10T08:16:12.089Z,17.90
2022-09-10T08:18:40.674Z,18.50
2022-09-10T08:21:10.569Z,19.00
2022-09-10T08:23:40.340Z,19.10
2022-09-10T08:26:09.085Z,19.30
2022-09-10T08:28:37.664Z,19.60
2022-09-10T08:31:08.569Z,19.90
2022-09-10T08:33:38.166Z,20.20
2022-09-10T08:36:08.389Z,20.30
2022-09-10T08:38:38.664Z,20.30
2022-09-10T08:41:13.416Z,20.30
2022-09-10T08:43:49.078Z,20.20
2022-09-10T08:46:23.496Z,20.10
2022-09-10T08:49:01.114Z,20.20
2022-09-10T08:51:31.288Z,20.60
2022-09-10T08:54:03.544Z,20.60
2022-09-10T08:56:35.205Z,20.60
2022-09-10T08:59:09.061Z,20.50
2022-09-10T09:01:46.012Z,20.50
2022-09-10T09:04:23.421Z,20.70
2022-09-10T09:06:54.893Z,20.80
2022-09-10T09:09:22.986Z,20.90
2022-09-10T09:12:02.464Z,21.00
2022-09-10T09:14:45.172Z,20.90
2022-09-10T09:17:34.073Z,20.60
2022-09-10T09:20:12.266Z,20.30
2022-09-10T09:22:49.621Z,20.00
2022-09-10T09:25:24.864Z,19.90
2022-09-10T09:27:56.527Z,19.80
2022-09-10T09:30:28.319Z,19.70
2022-09-10T09:33:04.596Z,19.70
2022-09-10T09:35:34.724Z,19.70
2022-09-10T09:38:17.651Z,19.60
2022-09-10T09:40:49.512Z,19.70
2022-09-10T09:43:27.004Z,19.70
2022-09-10T09:45:55.204Z,19.60
2022-09-10T09:48:24.578Z,19.70
2022-09-10T09:50:53.803Z,19.70
2022-09-10T09:53:25.974Z,19.80
2022-09-10T09:55:56.656Z,20.10
2022-09-10T09:58:31.411Z,20.70
2022-09-10T10:01:22.057Z,21.10
2022-09-10T10:03:53.052Z,21.20
2022-09-10T10:06:23.644Z,21.40
2022-09-10T10:09:05.478Z,21.30
2022-09-10T10:11:43.579Z,21.30
2022-09-10T10:14:35.165Z,21.40
2022-09-10T10:17:03.859Z,21.60
2022-09-10T10:19:34.139Z,21.40
2022-09-10T10:22:21.847Z,21.10
2022-09-10T10:24:52.504Z,21.00
2022-09-10T10:27:27.778Z,20.90
2022-09-10T10:30:08.360Z,20.70
2022-09-10T10:32:44.721Z,20.70
2022-09-10T10:35:29.295Z,20.50
2022-09-10T10:38:13.317Z,20.50
2022-09-10T10:40:48.586Z,20.60
2022-09-10T10:43:26.154Z,20.80
2022-09-10T10:46:02.264Z,21.00
2022-09-10T10:48:41.139Z,21.30
2022-09-10T10:51:18.138Z,21.40
2022-09-10T10:53:59.372Z,21.60
2022-09-10T10:56:33.273Z,21.50
2022-09-10T10:59:19.048Z,21.50
2022-09-10T11:01:54.007Z,21.30
2022-09-10T11:04:32.535Z,21.00
2022-09-10T11:07:09.383Z,20.80
2022-09-10T11:09:44.242Z,20.60
2022-09-10T11:12:17.791Z,20.50
2022-09-10T11:14:49.807Z,20.50
2022-09-10T11:17:23.505Z,20.30
2022-09-10T11:20:24.606Z,20.00
2022-09-10T11:22:52.639Z,19.70
2022-09-10T11:25:26.333Z,19.40
2022-09-10T11:27:59.989Z,19.40
2022-09-10T11:30:28.202Z,19.60
2022-09-10T11:33:05.412Z,19.60
2022-09-10T11:35:39.534Z,19.80
2022-09-10T11:38:18.453Z,19.80
2022-09-10T11:40:52.229Z,20.00
2022-09-10T11:43:30.171Z,20.10
2022-09-10T11:46:00.891Z,20.10
2022-09-10T11:48:35.028Z,20.10
2022-09-10T11:51:06.452Z,20.30
2022-09-10T11:53:34.666Z,20.50
2022-09-10T11:56:20.104Z,20.70
2022-09-10T11:59:02.470Z,20.90
2022-09-10T12:01:51.919Z,21.10
2022-09-10T12:04:47.567Z,21.50
2022-09-10T12:07:26.530Z,22.30
2022-09-10T12:10:05.291Z,23.10
2022-09-10T12:12:41.629Z,23.00
2022-09-10T12:15:15.717Z,22.60
2022-09-10T12:17:49.093Z,22.40
2022-09-10T12:20:25.126Z,22.00
2022-09-10T12:22:55.899Z,21.80
2022-09-10T12:25:33.906Z,21.70
2022-09-10T12:28:05.388Z,21.50
2022-09-10T12:30:52.352Z,21.30
2022-09-10T12:33:59.340Z,21.30
2022-09-10T12:37:17.050Z,21.50
2022-09-10T12:39:46.662Z,21.80
2022-09-10T12:42:32.282Z,22.00
2022-09-10T12:45:01.078Z,22.00
2022-09-10T12:47:50.156Z,22.10
2022-09-10T12:50:33.599Z,22.10
2022-09-10T12:53:36.036Z,22.90
2022-09-10T12:56:29.105Z,23.70
2022-09-10T12:59:15.245Z,23.50
2022-09-10T13:01:46.321Z,23.20
2022-09-10T13:04:28.376Z,22.70
2022-09-10T13:06:59.584Z,22.30
2022-09-10T13:09:32.600Z,21.90
2022-09-10T13:12:08.148Z,21.80
2022-09-10T13:14:40.168Z,21.80
2022-09-10T13:18:01.778Z,22.00
2022-09-10T13:20:32.650Z,22.30
2022-09-10T13:23:05.918Z,22.80
2022-09-10T13:25:39.987Z,22.70
2022-09-10T13:28:46.567Z,22.60
2022-09-10T13:31:20.970Z,22.50
2022-09-10T13:34:08.689Z,22.30
2022-09-10T13:36:44.677Z,22.00
2022-09-10T13:39:28.905Z,21.90
2022-09-10T13:42:18.298Z,21.90
2022-09-10T13:45:06.205Z,22.10
2022-09-10T13:47:46.136Z,22.40
2022-09-10T13:50:18.837Z,22.10
2022-09-10T13:52:49.151Z,21.80
2022-09-10T13:55:20.996Z,21.40
2022-09-10T13:57:50.971Z,21.00
2022-09-10T14:00:25.299Z,20.80
2022-09-10T14:02:56.112Z,20.50
2022-09-10T14:05:33.954Z,20.30
2022-09-10T14:08:07.109Z,20.10
2022-09-10T14:10:48.658Z,20.00
2022-09-10T14:13:22.345Z,20.20
2022-09-10T14:15:52.864Z,20.70
2022-09-10T14:18:24.396Z,21.40
2022-09-10T14:20:53.379Z,22.10
2022-09-10T14:23:21.506Z,22.60
2022-09-10T14:25:49.547Z,22.40
2022-09-10T14:28:24.303Z,22.10
2022-09-10T14:31:13.177Z,21.70
2022-09-10T14:33:44.541Z,21.30
2022-09-10T14:36:16.141Z,21.00
2022-09-10T14:38:46.730Z,20.80
2022-09-10T14:41:22.749Z,20.50
2022-09-10T14:44:11.484Z,20.30
2022-09-10T14:46:54.073Z,20.10
2022-09-10T14:49:28.569Z,19.90
2022-09-10T14:51:58.386Z,19.80
2022-09-10T14:54:26.939Z,19.90
2022-09-10T14:56:57.504Z,19.90
2022-09-10T14:59:31.122Z,19.90
2022-09-10T15:02:00.830Z,19.90
2022-09-10T15:04:30.983Z,19.90
2022-09-10T15:07:00.200Z,19.80
2022-09-10T15:09:31.056Z,19.60
2022-09-10T15:12:03.400Z,19.60
2022-09-10T15:14:32.402Z,19.40
2022-09-10T15:17:00.903Z,19.30
2022-09-10T15:19:30.277Z,19.10
2022-09-10T15:21:59.627Z,19.00
2022-09-10T15:24:28.939Z,18.80
2022-09-10T15:26:57.452Z,18.60
2022-09-10T15:29:26.102Z,18.50
2022-09-10T15:31:59.422Z,18.40
2022-09-10T15:34:29.984Z,18.30
2022-09-10T15:36:58.609Z,18.30
2022-09-10T15:39:26.840Z,18.20
2022-09-10T15:41:55.653Z,18.20
2022-09-10T15:44:25.375Z,18.20
2022-09-10T15:46:53.387Z,18.20
2022-09-10T15:49:21.464Z,18.10
2022-09-10T15:51:50.853Z,18.10
2022-09-10T15:54:18.653Z,18.00
2022-09-10T15:56:46.703Z,17.90
2022-09-10T15:59:16.548Z,17.80
2022-09-10T16:01:44.556Z,17.70
2022-09-10T16:04:12.576Z,17.60
2022-09-10T16:06:41.604Z,17.50
2022-09-10T16:09:13.001Z,17.40
2022-09-10T16:11:42.840Z,17.30
2022-09-10T16:14:14.187Z,17.20
2022-09-10T16:16:43.140Z,17.00
2022-09-10T16:19:12.849Z,17.00
2022-09-10T16:21:43.375Z,16.90
2022-09-10T16:24:13.092Z,16.70
2022-09-10T16:26:43.543Z,16.70
2022-09-10T16:29:15.135Z,16.60
2022-09-10T16:31:45.412Z,16.40
2022-09-10T16:34:17.401Z,16.40
2022-09-10T16:36:46.146Z,16.30
2022-09-10T16:39:17.105Z,16.30
2022-09-10T16:41:46.640Z,16.20
2022-09-10T16:44:16.114Z,16.10
2022-09-10T16:46:44.411Z,16.00
2022-09-10T16:49:14.303Z,15.90
2022-09-10T16:51:43.801Z,15.80
2022-09-10T16:54:13.506Z,15.70
2022-09-10T16:56:47.146Z,15.70
2022-09-10T16:59:17.589Z,15.60
2022-09-10T17:01:47.762Z,15.50
2022-09-10T17:04:20.652Z,15.50
2022-09-10T17:06:51.100Z,15.50
2022-09-10T17:09:19.818Z,15.40
2022-09-10T17:11:49.231Z,15.30
2022-09-10T17:14:17.285Z,15.30
2022-09-10T17:16:45.311Z,15.20
2022-09-10T17:19:15.127Z,15.10
2022-09-10T17:21:44.410Z,15.10
2022-09-10T17:24:14.163Z,15.00
2022-09-10T17:26:43.024Z,14.90
2022-09-10T17:29:32.904Z,14.90
2022-09-10T17:32:20.806Z,14.70
2022-09-10T17:35:10.818Z,14.70
2022-09-10T17:37:59.021Z,14.60
2022-09-10T17:40:46.925Z,14.50
2022-09-10T17:43:37.129Z,14.40
2022-09-10T17:46:08.111Z,14.30
2022-09-10T17:48:37.869Z,14.20
2022-09-10T17:51:07.045Z,14.20
2022-09-10T17:53:35.440Z,14.10
2022-09-10T17:56:04.839Z,14.00
2022-09-10T17:58:33.607Z,13.90
2022-09-10T18:01:02.783Z,13.90
2022-09-10T18:03:33.529Z,13.80
2022-09-10T18:06:05.035Z,13.70
2022-09-10T18:08:33.574Z,13.60
2022-09-10T18:11:02.702Z,13.50
2022-09-10T18:13:30.631Z,13.50
2022-09-10T18:15:58.602Z,13.50
2022-09-10T18:18:26.724Z,13.40
2022-09-10T18:20:56.377Z,13.30
2022-09-10T18:23:24.296Z,13.20
2022-09-10T18:25:52.598Z,13.30
2022-09-10T18:28:20.568Z,13.20
2022-09-10T18:30:48.596Z,13.10
2022-09-10T18:33:16.841Z,13.10
2022-09-10T18:35:46.737Z,13.10
2022-09-10T18:38:16.166Z,13.10
2022-09-10T18:40:44.165Z,13.00
2022-09-10T18:43:13.578Z,13.00
2022-09-10T18:45:41.541Z,13.00
2022-09-10T18:48:09.493Z,13.00
2022-09-10T18:50:37.450Z,12.90
2022-09-10T18:53:06.309Z,12.90
2022-09-10T18:55:38.317Z,12.90
2022-09-10T18:58:06.300Z,12.80
2022-09-10T19:00:34.282Z,12.80
2022-09-10T19:03:02.232Z,12.80
2022-09-10T19:05:31.345Z,12.80
2022-09-10T19:07:59.481Z,12.70
2022-09-10T19:10:29.701Z,12.70
2022-09-10T19:12:59.030Z,12.60
2022-09-10T19:15:27.867Z,12.70
2022-09-10T19:17:55.889Z,12.70
2022-09-10T19:20:26.375Z,12.70
2022-09-10T19:22:54.384Z,12.70
2022-09-10T19:25:22.823Z,12.70
2022-09-10T19:27:50.848Z,12.70
2022-09-10T19:30:20.235Z,12.70
2022-09-10T19:32:48.199Z,12.80
2022-09-10T19:35:16.304Z,12.80
2022-09-10T19:37:44.327Z,12.80
2022-09-10T19:40:12.915Z,12.80
2022-09-10T19:42:40.933Z,12.80
2022-09-10T19:45:10.368Z,12.80
2022-09-10T19:47:40.190Z,12.80
2022-09-10T19:50:08.648Z,12.90
2022-09-10T19:52:36.651Z,12.80
2022-09-10T19:55:05.065Z,12.90
2022-09-10T19:57:33.728Z,12.90
2022-09-10T20:00:01.661Z,12.90
2022-09-10T20:02:29.693Z,13.00
2022-09-10T20:04:59.136Z,13.00
2022-09-10T20:07:28.307Z,12.90
2022-09-10T20:09:56.471Z,12.90
2022-09-10T20:12:24.733Z,12.90
2022-09-10T20:14:52.707Z,12.90
2022-09-10T20:17:20.676Z,13.00
2022-09-10T20:19:48.713Z,13.00
2022-09-10T20:22:18.137Z,13.00
2022-09-10T20:24:46.077Z,13.00
2022-09-10T20:27:14.083Z,12.90
2022-09-10T20:29:43.846Z,13.00
2022-09-10T20:32:12.701Z,12.90
2022-09-10T20:34:40.744Z,12.90
2022-09-10T20:37:08.829Z,12.80
2022-09-10T20:39:42.176Z,12.80
2022-09-10T20:42:11.209Z,12.70
2022-09-10T20:44:39.142Z,12.70
2022-09-10T20:47:07.910Z,12.70
2022-09-10T20:49:35.939Z,12.70
2022-09-10T20:52:04.492Z,12.70
2022-09-10T20:54:32.523Z,12.70
2022-09-10T20:57:02.125Z,12.70
2022-09-10T20:59:30.517Z,12.70
2022-09-10T21:01:58.500Z,12.70
2022-09-10T21:04:26.536Z,12.70
2022-09-10T21:06:55.091Z,12.80
2022-09-10T21:09:23.036Z,12.80
2022-09-10T21:11:51.185Z,12.80
2022-09-10T21:14:20.523Z,12.80
2022-09-10T21:16:48.585Z,12.90
2022-09-10T21:19:17.778Z,12.90
2022-09-10T21:21:48.720Z,13.00
2022-09-10T21:24:19.622Z,13.00
2022-09-10T21:26:47.598Z,13.00
2022-09-10T21:29:17.990Z,13.00
2022-09-10T21:31:50.392Z,13.00
2022-09-10T21:34:19.216Z,13.00
2022-09-10T21:36:47.353Z,13.00
2022-09-10T21:39:17.325Z,13.10
2022-09-10T21:41:47.461Z,13.10
2022-09-10T21:44:17.771Z,13.10
2022-09-10T21:46:48.543Z,13.10
2022-09-10T21:49:17.237Z,13.10
2022-09-10T21:51:45.447Z,13.10
2022-09-10T21:54:16.999Z,13.10
2022-09-10T21:56:45.259Z,13.10
2022-09-10T21:59:14.636Z,13.10
2022-09-10T22:01:44.533Z,13.10
2022-09-10T22:04:18.806Z,13.10
2022-09-10T22:06:49.725Z,13.10
2022-09-10T22:09:17.754Z,13.10
2022-09-10T22:11:47.133Z,13.20
2022-09-10T22:14:17.609Z,13.20
2022-09-10T22:16:46.429Z,13.20
2022-09-10T22:19:18.541Z,13.30
2022-09-10T22:21:47.067Z,13.30
2022-09-10T22:24:18.330Z,13.30
2022-09-10T22:26:47.185Z,13.30
2022-09-10T22:29:17.363Z,13.30
2022-09-10T22:31:45.318Z,13.30
2022-09-10T22:34:16.525Z,13.30
2022-09-10T22:36:46.529Z,13.40
2022-09-10T22:39:16.256Z,13.40
2022-09-10T22:41:44.971Z,13.40
2022-09-10T22:44:13.232Z,13.40
2022-09-10T22:46:42.617Z,13.40
2022-09-10T22:49:10.900Z,13.40
2022-09-10T22:51:41.805Z,13.40
2022-09-10T22:54:11.034Z,13.40
2022-09-10T22:56:39.771Z,13.40
2022-09-10T22:59:08.246Z,13.40
2022-09-10T23:01:38.250Z,13.40
2022-09-10T23:04:08.016Z,13.40
2022-09-10T23:06:38.500Z,13.40
2022-09-10T23:09:10.208Z,13.40
2022-09-10T23:11:41.060Z,13.40
2022-09-10T23:14:12.973Z,13.40
2022-09-10T23:16:42.381Z,13.40
2022-09-10T23:19:13.540Z,13.40
2022-09-10T23:21:43.289Z,13.40
2022-09-10T23:24:14.863Z,13.40
2022-09-10T23:26:43.897Z,13.30
2022-09-10T23:29:12.721Z,13.30
2022-09-10T23:31:41.751Z,13.30
2022-09-10T23:34:12.037Z,13.30
2022-09-10T23:36:42.055Z,13.30
2022-09-10T23:39:15.576Z,13.30
2022-09-10T23:41:43.960Z,13.40
2022-09-10T23:44:12.388Z,13.40
2022-09-10T23:46:40.795Z,13.40
2022-09-10T23:49:08.980Z,13.40
2022-09-10T23:51:37.190Z,13.40
2022-09-10T23:54:05.348Z,13.30
2022-09-10T23:56:35.199Z,13.30
2022-09-10T23:59:03.471Z,13.30
